sensor_id;sensor_type;location;lat;lon;timestamp;temperature;humidity
22676;DHT22;12521;43.310;21.876;2023-07-08T00:00:45;21.9;96.0
22676;DHT22;12521;43.310;21.876;2023-07-08T00:05:25;21.9;96.0
22676;DHT22;12521;43.310;21.876;2023-07-08T00:10:04;22.0;96.0
22676;DHT22;12521;43.310;21.876;2023-07-08T00:14:54;22.0;96.0
22676;DHT22;12521;43.310;21.876;2023-07-08T00:19:30;22.0;96.0
22676;DHT22;12521;43.310;21.876;2023-07-08T00:24:06;22.0;96.0
22676;DHT22;12521;43.310;21.876;2023-07-08T00:28:42;22.0;96.0
22676;DHT22;12521;43.310;21.876;2023-07-08T00:33:19;22.0;96.0
22676;DHT22;12521;43.310;21.876;2023-07-08T00:37:56;21.9;96.0
22676;DHT22;12521;43.310;21.876;2023-07-08T00:42:32;21.9;96.0
22676;DHT22;12521;43.310;21.876;2023-07-08T00:47:11;21.9;96.0
22676;DHT22;12521;43.310;21.876;2023-07-08T00:51:52;21.8;96.0
22676;DHT22;12521;43.310;21.876;2023-07-08T00:56:31;21.8;96.0
22676;DHT22;12521;43.310;21.876;2023-07-08T01:01:30;21.6;96.0
22676;DHT22;12521;43.310;21.876;2023-07-08T01:06:21;21.6;96.0
22676;DHT22;12521;43.310;21.876;2023-07-08T01:11:13;21.4;96.0
22676;DHT22;12521;43.310;21.876;2023-07-08T01:15:50;21.4;96.0
22676;DHT22;12521;43.310;21.876;2023-07-08T01:20:27;21.4;96.0
22676;DHT22;12521;43.310;21.876;2023-07-08T01:25:05;21.4;96.0
22676;DHT22;12521;43.310;21.876;2023-07-08T01:29:49;21.3;96.0
22676;DHT22;12521;43.310;21.876;2023-07-08T01:34:26;21.3;96.0
22676;DHT22;12521;43.310;21.876;2023-07-08T01:39:04;21.3;96.0
22676;DHT22;12521;43.310;21.876;2023-07-08T01:43:41;21.3;96.0
22676;DHT22;12521;43.310;21.876;2023-07-08T01:48:22;21.3;96.0
22676;DHT22;12521;43.310;21.876;2023-07-08T01:53:14;21.3;96.0
22676;DHT22;12521;43.310;21.876;2023-07-08T01:58:09;21.2;96.0
22676;DHT22;12521;43.310;21.876;2023-07-08T02:02:46;21.2;96.0
22676;DHT22;12521;43.310;21.876;2023-07-08T02:07:26;21.2;96.0
22676;DHT22;12521;43.310;21.876;2023-07-08T02:12:04;21.2;96.0
22676;DHT22;12521;43.310;21.876;2023-07-08T02:16:43;21.2;96.0
22676;DHT22;12521;43.310;21.876;2023-07-08T02:21:19;21.2;96.0
22676;DHT22;12521;43.310;21.876;2023-07-08T02:25:56;21.2;96.0
22676;DHT22;12521;43.310;21.876;2023-07-08T02:30:32;21.2;96.0
22676;DHT22;12521;43.310;21.876;2023-07-08T02:35:09;21.2;96.0
22676;DHT22;12521;43.310;21.876;2023-07-08T02:39:46;21.2;96.0
22676;DHT22;12521;43.310;21.876;2023-07-08T02:44:22;21.2;96.0
22676;DHT22;12521;43.310;21.876;2023-07-08T02:48:59;21.2;96.0
22676;DHT22;12521;43.310;21.876;2023-07-08T02:53:36;21.2;96.0
22676;DHT22;12521;43.310;21.876;2023-07-08T02:58:12;21.0;96.0
22676;DHT22;12521;43.310;21.876;2023-07-08T03:02:48;21.0;96.0
22676;DHT22;12521;43.310;21.876;2023-07-08T03:07:24;21.0;96.0
22676;DHT22;12521;43.310;21.876;2023-07-08T03:12:01;20.9;96.0
22676;DHT22;12521;43.310;21.876;2023-07-08T03:16:37;20.9;96.0
22676;DHT22;12521;43.310;21.876;2023-07-08T03:21:16;20.8;96.0
22676;DHT22;12521;43.310;21.876;2023-07-08T03:25:54;20.8;96.0
22676;DHT22;12521;43.310;21.876;2023-07-08T03:30:31;20.7;96.0
22676;DHT22;12521;43.310;21.876;2023-07-08T03:35:10;20.7;96.0
22676;DHT22;12521;43.310;21.876;2023-07-08T03:39:47;20.6;96.0
22676;DHT22;12521;43.310;21.876;2023-07-08T03:44:23;20.6;96.0
22676;DHT22;12521;43.310;21.876;2023-07-08T03:49:01;20.6;96.0
22676;DHT22;12521;43.310;21.876;2023-07-08T03:53:38;20.6;96.0
22676;DHT22;12521;43.310;21.876;2023-07-08T03:58:15;20.6;96.0
22676;DHT22;12521;43.310;21.876;2023-07-08T04:02:52;20.6;96.0
22676;DHT22;12521;43.310;21.876;2023-07-08T04:07:29;20.6;96.0
22676;DHT22;12521;43.310;21.876;2023-07-08T04:12:09;20.7;96.0
22676;DHT22;12521;43.310;21.876;2023-07-08T04:16:50;20.7;96.0
22676;DHT22;12521;43.310;21.876;2023-07-08T04:21:34;20.7;96.0
22676;DHT22;12521;43.310;21.876;2023-07-08T04:26:11;20.7;96.0
22676;DHT22;12521;43.310;21.876;2023-07-08T04:30:48;20.7;96.0
22676;DHT22;12521;43.310;21.876;2023-07-08T04:35:26;20.7;96.0
22676;DHT22;12521;43.310;21.876;2023-07-08T04:40:03;20.6;96.0
22676;DHT22;12521;43.310;21.876;2023-07-08T04:44:56;20.6;96.0
22676;DHT22;12521;43.310;21.876;2023-07-08T04:49:32;20.5;96.0
22676;DHT22;12521;43.310;21.876;2023-07-08T04:54:09;20.5;96.0
22676;DHT22;12521;43.310;21.876;2023-07-08T04:58:47;20.6;96.0
22676;DHT22;12521;43.310;21.876;2023-07-08T05:03:24;20.6;96.0
22676;DHT22;12521;43.310;21.876;2023-07-08T05:08:01;20.7;96.0
22676;DHT22;12521;43.310;21.876;2023-07-08T05:12:39;20.7;96.0
22676;DHT22;12521;43.310;21.876;2023-07-08T05:17:16;20.7;96.0
22676;DHT22;12521;43.310;21.876;2023-07-08T05:21:53;20.8;96.0
22676;DHT22;12521;43.310;21.876;2023-07-08T05:26:30;20.8;96.0
22676;DHT22;12521;43.310;21.876;2023-07-08T05:31:08;20.9;96.0
22676;DHT22;12521;43.310;21.876;2023-07-08T05:35:45;20.9;96.0
22676;DHT22;12521;43.310;21.876;2023-07-08T05:40:21;21.0;96.0
22676;DHT22;12521;43.310;21.876;2023-07-08T05:44:58;21.0;96.0
22676;DHT22;12521;43.310;21.876;2023-07-08T05:49:34;21.0;96.0
22676;DHT22;12521;43.310;21.876;2023-07-08T05:54:11;21.0;96.0
22676;DHT22;12521;43.310;21.876;2023-07-08T05:58:49;21.2;96.0
22676;DHT22;12521;43.310;21.876;2023-07-08T06:03:26;21.2;96.0
22676;DHT22;12521;43.310;21.876;2023-07-08T06:08:03;21.3;96.0
22676;DHT22;12521;43.310;21.876;2023-07-08T06:12:43;21.3;96.0
22676;DHT22;12521;43.310;21.876;2023-07-08T06:17:20;21.3;96.0
22676;DHT22;12521;43.310;21.876;2023-07-08T06:21:57;21.6;96.0
22676;DHT22;12521;43.310;21.876;2023-07-08T06:26:34;21.6;96.0
22676;DHT22;12521;43.310;21.876;2023-07-08T06:31:11;21.9;96.0
22676;DHT22;12521;43.310;21.876;2023-07-08T06:35:48;21.9;96.0
22676;DHT22;12521;43.310;21.876;2023-07-08T06:40:25;22.2;96.0
22676;DHT22;12521;43.310;21.876;2023-07-08T06:45:03;22.2;96.0
22676;DHT22;12521;43.310;21.876;2023-07-08T06:49:44;22.4;96.0
22676;DHT22;12521;43.310;21.876;2023-07-08T06:54:21;22.4;96.0
22676;DHT22;12521;43.310;21.876;2023-07-08T06:58:57;22.5;96.0
22676;DHT22;12521;43.310;21.876;2023-07-08T07:03:34;22.5;96.0
22676;DHT22;12521;43.310;21.876;2023-07-08T07:08:11;22.7;96.0
22676;DHT22;12521;43.310;21.876;2023-07-08T07:12:47;22.7;96.0
22676;DHT22;12521;43.310;21.876;2023-07-08T07:17:24;22.7;96.0
22676;DHT22;12521;43.310;21.876;2023-07-08T07:22:02;22.8;96.0
22676;DHT22;12521;43.310;21.876;2023-07-08T07:26:41;22.8;96.0
22676;DHT22;12521;43.310;21.876;2023-07-08T07:31:17;22.9;96.0
22676;DHT22;12521;43.310;21.876;2023-07-08T07:35:54;22.9;96.0
22676;DHT22;12521;43.310;21.876;2023-07-08T07:40:30;23.1;96.0
22676;DHT22;12521;43.310;21.876;2023-07-08T07:45:07;23.1;96.0
22676;DHT22;12521;43.310;21.876;2023-07-08T07:49:48;23.3;96.0
22676;DHT22;12521;43.310;21.876;2023-07-08T07:54:25;23.3;96.0
22676;DHT22;12521;43.310;21.876;2023-07-08T07:59:02;23.4;96.0
22676;DHT22;12521;43.310;21.876;2023-07-08T08:03:39;23.4;96.0
22676;DHT22;12521;43.310;21.876;2023-07-08T08:08:16;23.5;96.0
22676;DHT22;12521;43.310;21.876;2023-07-08T08:12:54;23.5;96.0
22676;DHT22;12521;43.310;21.876;2023-07-08T08:17:30;23.5;96.0
22676;DHT22;12521;43.310;21.876;2023-07-08T08:22:06;23.8;96.0
22676;DHT22;12521;43.310;21.876;2023-07-08T08:26:43;23.8;96.0
22676;DHT22;12521;43.310;21.876;2023-07-08T08:31:19;24.0;96.0
22676;DHT22;12521;43.310;21.876;2023-07-08T08:35:56;24.0;96.0
22676;DHT22;12521;43.310;21.876;2023-07-08T08:40:32;24.4;96.0
22676;DHT22;12521;43.310;21.876;2023-07-08T08:45:13;24.4;96.0
22676;DHT22;12521;43.310;21.876;2023-07-08T08:50:02;24.7;96.0
22676;DHT22;12521;43.310;21.876;2023-07-08T08:55:26;24.7;96.0
22676;DHT22;12521;43.310;21.876;2023-07-08T09:00:09;24.8;96.0
22676;DHT22;12521;43.310;21.876;2023-07-08T09:05:31;24.8;96.0
22676;DHT22;12521;43.310;21.876;2023-07-08T09:10:15;24.9;96.0
22676;DHT22;12521;43.310;21.876;2023-07-08T09:15:37;24.9;96.0
22676;DHT22;12521;43.310;21.876;2023-07-08T09:20:20;25.0;96.0
22676;DHT22;12521;43.310;21.876;2023-07-08T09:25:22;25.0;96.0
22676;DHT22;12521;43.310;21.876;2023-07-08T09:30:28;25.1;96.0
22676;DHT22;12521;43.310;21.876;2023-07-08T09:35:08;25.1;96.0
22676;DHT22;12521;43.310;21.876;2023-07-08T09:40:09;25.4;96.0
22676;DHT22;12521;43.310;21.876;2023-07-08T09:45:12;25.4;96.0
22676;DHT22;12521;43.310;21.876;2023-07-08T09:50:00;25.6;96.0
22676;DHT22;12521;43.310;21.876;2023-07-08T09:55:01;25.6;96.0
22676;DHT22;12521;43.310;21.876;2023-07-08T09:59:45;25.8;96.0
22676;DHT22;12521;43.310;21.876;2023-07-08T10:04:35;25.8;96.0
22676;DHT22;12521;43.310;21.876;2023-07-08T10:09:14;26.1;96.0
22676;DHT22;12521;43.310;21.876;2023-07-08T10:14:04;26.1;96.0
22676;DHT22;12521;43.310;21.876;2023-07-08T10:19:12;26.2;96.0
22676;DHT22;12521;43.310;21.876;2023-07-08T10:24:03;26.2;96.0
22676;DHT22;12521;43.310;21.876;2023-07-08T10:29:48;26.4;96.0
22676;DHT22;12521;43.310;21.876;2023-07-08T10:35:03;26.4;96.0
22676;DHT22;12521;43.310;21.876;2023-07-08T10:40:16;26.7;94.0
22676;DHT22;12521;43.310;21.876;2023-07-08T10:45:31;26.7;94.0
22676;DHT22;12521;43.310;21.876;2023-07-08T10:50:56;27.0;93.0
22676;DHT22;12521;43.310;21.876;2023-07-08T10:56:13;27.0;93.0
22676;DHT22;12521;43.310;21.876;2023-07-08T11:01:24;27.2;92.0
22676;DHT22;12521;43.310;21.876;2023-07-08T11:06:45;27.2;92.0
22676;DHT22;12521;43.310;21.876;2023-07-08T11:11:40;27.5;91.0
22676;DHT22;12521;43.310;21.876;2023-07-08T11:16:36;27.5;91.0
22676;DHT22;12521;43.310;21.876;2023-07-08T11:21:34;27.6;90.0
22676;DHT22;12521;43.310;21.876;2023-07-08T11:26:28;27.6;90.0
22676;DHT22;12521;43.310;21.876;2023-07-08T11:31:32;27.8;89.0
22676;DHT22;12521;43.310;21.876;2023-07-08T11:36:14;27.8;89.0
22676;DHT22;12521;43.310;21.876;2023-07-08T11:41:04;28.0;87.0
22676;DHT22;12521;43.310;21.876;2023-07-08T11:46:07;28.0;87.0
22676;DHT22;12521;43.310;21.876;2023-07-08T11:51:05;28.3;86.0
22676;DHT22;12521;43.310;21.876;2023-07-08T11:56:03;28.3;86.0
22676;DHT22;12521;43.310;21.876;2023-07-08T12:01:04;28.4;84.0
22676;DHT22;12521;43.310;21.876;2023-07-08T12:07:03;28.4;84.0
22676;DHT22;12521;43.310;21.876;2023-07-08T12:12:16;28.6;83.0
22676;DHT22;12521;43.310;21.876;2023-07-08T12:17:15;28.6;83.0
22676;DHT22;12521;43.310;21.876;2023-07-08T12:21:52;28.6;82.0
22676;DHT22;12521;43.310;21.876;2023-07-08T12:26:29;28.6;82.0
22676;DHT22;12521;43.310;21.876;2023-07-08T12:31:13;28.7;82.0
22676;DHT22;12521;43.310;21.876;2023-07-08T12:35:59;28.7;82.0
22676;DHT22;12521;43.310;21.876;2023-07-08T12:40:40;29.0;81.0
22676;DHT22;12521;43.310;21.876;2023-07-08T12:45:21;29.0;81.0
22676;DHT22;12521;43.310;21.876;2023-07-08T12:50:07;29.4;80.0
22676;DHT22;12521;43.310;21.876;2023-07-08T12:54:49;29.4;80.0
22676;DHT22;12521;43.310;21.876;2023-07-08T12:59:26;29.6;79.0
22676;DHT22;12521;43.310;21.876;2023-07-08T13:04:04;29.6;79.0
22676;DHT22;12521;43.310;21.876;2023-07-08T13:08:50;29.9;79.0
22676;DHT22;12521;43.310;21.876;2023-07-08T13:13:31;29.9;79.0
22676;DHT22;12521;43.310;21.876;2023-07-08T13:18:31;30.1;78.0
22676;DHT22;12521;43.310;21.876;2023-07-08T13:23:17;30.1;78.0
22676;DHT22;12521;43.310;21.876;2023-07-08T13:28:00;30.1;78.0
22676;DHT22;12521;43.310;21.876;2023-07-08T13:33:04;30.3;78.0
22676;DHT22;12521;43.310;21.876;2023-07-08T13:37:40;30.3;78.0
22676;DHT22;12521;43.310;21.876;2023-07-08T13:42:16;30.3;78.0
22676;DHT22;12521;43.310;21.876;2023-07-08T13:46:55;30.3;78.0
22676;DHT22;12521;43.310;21.876;2023-07-08T13:51:36;30.3;78.0
22676;DHT22;12521;43.310;21.876;2023-07-08T13:56:15;30.3;78.0
22676;DHT22;12521;43.310;21.876;2023-07-08T14:01:05;30.3;78.0
22676;DHT22;12521;43.310;21.876;2023-07-08T14:05:56;30.3;78.0
22676;DHT22;12521;43.310;21.876;2023-07-08T14:10:33;30.3;78.0
22676;DHT22;12521;43.310;21.876;2023-07-08T14:15:10;30.3;78.0
22676;DHT22;12521;43.310;21.876;2023-07-08T14:19:47;30.3;78.0
22676;DHT22;12521;43.310;21.876;2023-07-08T14:24:25;30.3;78.0
22676;DHT22;12521;43.310;21.876;2023-07-08T14:29:03;30.3;77.0
22676;DHT22;12521;43.310;21.876;2023-07-08T14:33:40;30.3;77.0
22676;DHT22;12521;43.310;21.876;2023-07-08T14:38:17;30.3;77.0
22676;DHT22;12521;43.310;21.876;2023-07-08T14:42:58;30.4;77.0
22676;DHT22;12521;43.310;21.876;2023-07-08T14:48:06;30.4;77.0
22676;DHT22;12521;43.310;21.876;2023-07-08T14:52:49;30.6;77.0
22676;DHT22;12521;43.310;21.876;2023-07-08T14:57:28;30.6;77.0
22676;DHT22;12521;43.310;21.876;2023-07-08T15:02:23;30.8;77.0
22676;DHT22;12521;43.310;21.876;2023-07-08T15:07:00;30.8;77.0
22676;DHT22;12521;43.310;21.876;2023-07-08T15:11:44;30.9;77.0
22676;DHT22;12521;43.310;21.876;2023-07-08T15:16:22;30.9;77.0
22676;DHT22;12521;43.310;21.876;2023-07-08T15:20:59;30.8;77.0
22676;DHT22;12521;43.310;21.876;2023-07-08T15:25:36;30.8;77.0
22676;DHT22;12521;43.310;21.876;2023-07-08T15:30:25;30.8;76.0
22676;DHT22;12521;43.310;21.876;2023-07-08T15:35:12;30.8;76.0
22676;DHT22;12521;43.310;21.876;2023-07-08T15:39:57;30.9;76.0
22676;DHT22;12521;43.310;21.876;2023-07-08T15:44:34;30.9;76.0
22676;DHT22;12521;43.310;21.876;2023-07-08T15:49:14;31.0;76.0
22676;DHT22;12521;43.310;21.876;2023-07-08T15:54:00;31.0;76.0
22676;DHT22;12521;43.310;21.876;2023-07-08T15:58:36;30.9;75.0
22676;DHT22;12521;43.310;21.876;2023-07-08T16:03:22;30.9;75.0
22676;DHT22;12521;43.310;21.876;2023-07-08T16:08:10;30.9;75.0
22676;DHT22;12521;43.310;21.876;2023-07-08T16:12:47;30.8;75.0
22676;DHT22;12521;43.310;21.876;2023-07-08T16:17:24;30.8;75.0
22676;DHT22;12521;43.310;21.876;2023-07-08T16:22:00;31.2;74.0
22676;DHT22;12521;43.310;21.876;2023-07-08T16:26:37;31.2;74.0
22676;DHT22;12521;43.310;21.876;2023-07-08T16:31:18;31.6;74.0
22676;DHT22;12521;43.310;21.876;2023-07-08T16:36:00;31.6;74.0
22676;DHT22;12521;43.310;21.876;2023-07-08T16:40:37;32.4;72.0
22676;DHT22;12521;43.310;21.876;2023-07-08T16:45:16;32.4;72.0
22676;DHT22;12521;43.310;21.876;2023-07-08T16:50:02;33.3;71.0
22676;DHT22;12521;43.310;21.876;2023-07-08T16:54:44;33.3;71.0
22676;DHT22;12521;43.310;21.876;2023-07-08T16:59:22;33.9;69.0
22676;DHT22;12521;43.310;21.876;2023-07-08T17:03:59;33.9;69.0
22676;DHT22;12521;43.310;21.876;2023-07-08T17:08:38;34.5;68.0
22676;DHT22;12521;43.310;21.876;2023-07-08T17:13:15;34.5;68.0
22676;DHT22;12521;43.310;21.876;2023-07-08T17:17:53;34.5;68.0
22676;DHT22;12521;43.310;21.876;2023-07-08T17:22:41;34.0;68.0
22676;DHT22;12521;43.310;21.876;2023-07-08T17:27:19;34.0;68.0
22676;DHT22;12521;43.310;21.876;2023-07-08T17:31:56;33.4;68.0
22676;DHT22;12521;43.310;21.876;2023-07-08T17:36:34;33.4;68.0
22676;DHT22;12521;43.310;21.876;2023-07-08T17:41:14;31.6;71.0
22676;DHT22;12521;43.310;21.876;2023-07-08T17:45:55;31.6;71.0
22676;DHT22;12521;43.310;21.876;2023-07-08T17:50:32;29.8;74.0
22676;DHT22;12521;43.310;21.876;2023-07-08T17:55:08;29.8;74.0
22676;DHT22;12521;43.310;21.876;2023-07-08T17:59:46;28.8;76.0
22676;DHT22;12521;43.310;21.876;2023-07-08T18:04:23;28.8;76.0
22676;DHT22;12521;43.310;21.876;2023-07-08T18:08:59;27.7;79.0
22676;DHT22;12521;43.310;21.876;2023-07-08T18:13:36;27.7;79.0
22676;DHT22;12521;43.310;21.876;2023-07-08T18:18:13;27.7;79.0
22676;DHT22;12521;43.310;21.876;2023-07-08T18:22:52;27.4;81.0
22676;DHT22;12521;43.310;21.876;2023-07-08T18:27:30;27.4;81.0
22676;DHT22;12521;43.310;21.876;2023-07-08T18:32:08;27.0;82.0
22676;DHT22;12521;43.310;21.876;2023-07-08T18:36:46;27.0;82.0
22676;DHT22;12521;43.310;21.876;2023-07-08T18:41:25;26.6;84.0
22676;DHT22;12521;43.310;21.876;2023-07-08T18:46:20;26.6;84.0
22676;DHT22;12521;43.310;21.876;2023-07-08T18:50:59;26.2;86.0
22676;DHT22;12521;43.310;21.876;2023-07-08T18:55:35;26.2;86.0
22676;DHT22;12521;43.310;21.876;2023-07-08T19:00:13;25.8;87.0
22676;DHT22;12521;43.310;21.876;2023-07-08T19:04:56;25.8;87.0
22676;DHT22;12521;43.310;21.876;2023-07-08T19:09:32;25.4;89.0
22676;DHT22;12521;43.310;21.876;2023-07-08T19:14:12;25.4;89.0
22676;DHT22;12521;43.310;21.876;2023-07-08T19:18:52;25.0;91.0
22676;DHT22;12521;43.310;21.876;2023-07-08T19:23:29;25.0;91.0
22676;DHT22;12521;43.310;21.876;2023-07-08T19:28:07;25.0;91.0
22676;DHT22;12521;43.310;21.876;2023-07-08T19:32:48;24.6;92.0
22676;DHT22;12521;43.310;21.876;2023-07-08T19:37:34;24.6;92.0
22676;DHT22;12521;43.310;21.876;2023-07-08T19:42:13;24.3;93.0
22676;DHT22;12521;43.310;21.876;2023-07-08T19:47:02;24.3;93.0
22676;DHT22;12521;43.310;21.876;2023-07-08T19:51:42;24.0;94.0
22676;DHT22;12521;43.310;21.876;2023-07-08T19:56:20;24.0;94.0
22676;DHT22;12521;43.310;21.876;2023-07-08T20:00:57;23.8;95.0
22676;DHT22;12521;43.310;21.876;2023-07-08T20:05:34;23.8;95.0
22676;DHT22;12521;43.310;21.876;2023-07-08T20:10:13;23.6;96.0
22676;DHT22;12521;43.310;21.876;2023-07-08T20:14:54;23.6;96.0
22676;DHT22;12521;43.310;21.876;2023-07-08T20:19:31;23.5;96.0
22676;DHT22;12521;43.310;21.876;2023-07-08T20:24:08;23.5;96.0
22676;DHT22;12521;43.310;21.876;2023-07-08T20:28:45;23.3;96.0
22676;DHT22;12521;43.310;21.876;2023-07-08T20:33:22;23.3;96.0
22676;DHT22;12521;43.310;21.876;2023-07-08T20:38:02;23.3;96.0
22676;DHT22;12521;43.310;21.876;2023-07-08T20:42:38;23.1;96.0
22676;DHT22;12521;43.310;21.876;2023-07-08T20:47:15;23.1;96.0
22676;DHT22;12521;43.310;21.876;2023-07-08T20:51:52;22.9;96.0
22676;DHT22;12521;43.310;21.876;2023-07-08T20:56:30;22.9;96.0
22676;DHT22;12521;43.310;21.876;2023-07-08T21:01:09;22.8;96.0
22676;DHT22;12521;43.310;21.876;2023-07-08T21:05:48;22.8;96.0
22676;DHT22;12521;43.310;21.876;2023-07-08T21:10:34;22.7;96.0
22676;DHT22;12521;43.310;21.876;2023-07-08T21:15:11;22.7;96.0
22676;DHT22;12521;43.310;21.876;2023-07-08T21:19:53;22.5;96.0
22676;DHT22;12521;43.310;21.876;2023-07-08T21:24:29;22.5;96.0
22676;DHT22;12521;43.310;21.876;2023-07-08T21:29:07;22.4;96.0
22676;DHT22;12521;43.310;21.876;2023-07-08T21:33:48;22.4;96.0
22676;DHT22;12521;43.310;21.876;2023-07-08T21:38:24;22.4;96.0
22676;DHT22;12521;43.310;21.876;2023-07-08T21:43:03;22.2;96.0
22676;DHT22;12521;43.310;21.876;2023-07-08T21:47:48;22.2;96.0
22676;DHT22;12521;43.310;21.876;2023-07-08T21:52:24;21.9;96.0
22676;DHT22;12521;43.310;21.876;2023-07-08T21:57:00;21.9;96.0
22676;DHT22;12521;43.310;21.876;2023-07-08T22:01:39;21.8;96.0
22676;DHT22;12521;43.310;21.876;2023-07-08T22:06:17;21.8;96.0
22676;DHT22;12521;43.310;21.876;2023-07-08T22:10:58;21.6;96.0
22676;DHT22;12521;43.310;21.876;2023-07-08T22:15:36;21.6;96.0
22676;DHT22;12521;43.310;21.876;2023-07-08T22:20:13;21.4;96.0
22676;DHT22;12521;43.310;21.876;2023-07-08T22:24:50;21.4;96.0
22676;DHT22;12521;43.310;21.876;2023-07-08T22:29:27;21.2;96.0
22676;DHT22;12521;43.310;21.876;2023-07-08T22:34:10;21.2;96.0
22676;DHT22;12521;43.310;21.876;2023-07-08T22:38:59;21.0;96.0
22676;DHT22;12521;43.310;21.876;2023-07-08T22:43:47;21.0;96.0
22676;DHT22;12521;43.310;21.876;2023-07-08T22:48:24;21.0;96.0
22676;DHT22;12521;43.310;21.876;2023-07-08T22:53:02;20.9;96.0
22676;DHT22;12521;43.310;21.876;2023-07-08T22:57:39;20.9;96.0
22676;DHT22;12521;43.310;21.876;2023-07-08T23:02:16;20.8;96.0
22676;DHT22;12521;43.310;21.876;2023-07-08T23:06:52;20.8;96.0
22676;DHT22;12521;43.310;21.876;2023-07-08T23:11:28;20.7;96.0
22676;DHT22;12521;43.310;21.876;2023-07-08T23:16:09;20.7;96.0
22676;DHT22;12521;43.310;21.876;2023-07-08T23:21:05;20.6;96.0
22676;DHT22;12521;43.310;21.876;2023-07-08T23:25:43;20.6;96.0
22676;DHT22;12521;43.310;21.876;2023-07-08T23:30:20;20.5;96.0
22676;DHT22;12521;43.310;21.876;2023-07-08T23:34:57;20.5;96.0
22676;DHT22;12521;43.310;21.876;2023-07-08T23:39:33;20.4;96.0
22676;DHT22;12521;43.310;21.876;2023-07-08T23:44:10;20.4;96.0
22676;DHT22;12521;43.310;21.876;2023-07-08T23:48:49;20.4;96.0
22676;DHT22;12521;43.310;21.876;2023-07-08T23:53:28;20.2;96.0
22676;DHT22;12521;43.310;21.876;2023-07-08T23:58:10;20.2;96.0
